Terminal Aerodrome Forecast
Issued by NWS

Home | Current Version | Previous Version | Text Only | Print | Product List | Glossary Off
Versions: 1 2 3 4 5 6 7 8 9 10 11 12 13 14 15 16 17 18 19 20 21 22 23 24 25

000
FTUS43 KABR 202339
TAFMBG
TAF
KMBG 202339Z 2100/2124 24005KT P6SM FEW150
     FM210200 18006KT P6SM FEW130
     FM211200 19006KT P6SM SCT150 WS020/29030KT
     FM211300 20005KT P6SM SCT200
     FM211700 26005KT P6SM SCT200
     FM212300 17004KT P6SM FEW250=

USA.gov is the U.S. government's official web portal to all federal, state and local government web resources and services.